• Join FlightAware (Why Join?)
  • Login
  • US Flag 
05:29AM EDT


 

Airport Tracker/Info


-or-


 

Live Flight TrackerFlight Track Log ✈ AAL267 ✈ 09-Jul-2013 ✈ KLAX - PHNL

Flight Track Log - Related Links

Times and Time Zones

All times are in EDT time to prevent confusion due to time zone crossing. See the AAL267 flight status page for this flight to view local times or setup timezone preferences in your user account.

Time Position Orientation Groundspeed Altitude Reporting Facility
EDT Latitude Longitude Course Direction KTS MPH feet Rate Location/Type
09:35PM 33.9000 -118.7944 270° West  Level FlightAware Approximate
09:36PM 33.8812 -118.9252 264° West  Level FlightAware Approximate
09:37PM 33.8702 -119.0585 264° West  Level FlightAware Approximate
09:38PM 33.8516 -119.1904 259° West  Level FlightAware Approximate
09:39PM 33.8500 -119.3241 270° West  Level FlightAware Approximate
09:40PM 33.8363 -119.4568 262° West  Level FlightAware Approximate
09:41PM 33.8158 -119.5883 259° West  Level FlightAware Approximate
09:42PM 33.7963 -119.7200 263° West  Level FlightAware Approximate
09:43PM 33.7833 -119.8528 270° West  Level FlightAware Approximate
09:44PM 33.7775 -119.9861 262° West  Level FlightAware Approximate
09:45PM 33.7628 -120.1187 262° West  Level FlightAware Approximate
09:46PM 33.7465 -120.2509 256° West  Level FlightAware Approximate
09:47PM 33.7293 -120.3825 264° West  Level FlightAware Approximate
09:48PM 33.7182 -120.5155 264° West  Level FlightAware Approximate
09:49PM 33.7033 -120.6480 262° West  Level FlightAware Approximate
09:50PM 33.6876 -120.7803 262° West  Level FlightAware Approximate
09:51PM 33.6715 -120.9125 262° West  Level FlightAware Approximate
09:52PM 33.6550 -121.0446 262° West  Level FlightAware Approximate
09:53PM 33.6384 -121.1766 261° West  Level FlightAware Approximate
09:54PM 33.6263 -121.3093 265° West  Level FlightAware Approximate
09:55PM 33.6156 -121.4422 261° West  Level FlightAware Approximate
09:56PM 33.5989 -121.5742 261° West  Level FlightAware Approximate
09:57PM 33.5821 -121.7061 261° West  Level FlightAware Approximate
09:58PM 33.5652 -121.8380 261° West  Level FlightAware Approximate
09:59PM 33.5481 -121.9699 261° West  Level FlightAware Approximate
10:00PM 33.5308 -122.1017 261° West  Level FlightAware Approximate
10:01PM 33.5135 -122.2334 261° West  Level FlightAware Approximate
10:02PM 33.4960 -122.3651 261° West  Level FlightAware Approximate
10:03PM 33.4784 -122.4967 261° West  Level FlightAware Approximate
10:04PM 33.4579 -122.6276 257° West  Level FlightAware Approximate
10:05PM 33.4319 -122.7572 257° West  Level FlightAware Approximate
10:06PM 33.4059 -122.8867 256° West  Level FlightAware Approximate
10:07PM 33.3797 -123.0162 256° West  Level FlightAware Approximate
10:08PM 33.3534 -123.1455 256° West  Level FlightAware Approximate
10:09PM 33.3270 -123.2748 256° West  Level FlightAware Approximate
10:10PM 33.3004 -123.4040 256° West  Level FlightAware Approximate
10:11PM 33.2737 -123.5331 256° West  Level FlightAware Approximate
10:12PM 33.2469 -123.6621 256° West  Level FlightAware Approximate
10:13PM 33.2199 -123.7911 256° West  Level FlightAware Approximate
10:14PM 33.1928 -123.9200 256° West  Level FlightAware Approximate
10:15PM 33.1656 -124.0488 256° West  Level FlightAware Approximate
10:16PM 33.1382 -124.1775 256° West  Level FlightAware Approximate
10:17PM 33.1107 -124.3061 256° West  Level FlightAware Approximate
10:18PM 33.0827 -124.4345 239° Southwest  Level FlightAware Approximate
10:19PM 33.0563 -124.5602 254° West  Level FlightAware Approximate
10:20PM 33.0256 -124.6877 254° West  Level FlightAware Approximate
10:21PM 32.9949 -124.8151 254° West  Level FlightAware Approximate
10:22PM 32.9640 -124.9424 254° West  Level FlightAware Approximate
10:23PM 32.9340 -125.0700 255° West  Level FlightAware Approximate
10:24PM 32.9047 -125.1977 255° West  Level FlightAware Approximate
10:25PM 32.8752 -125.3254 255° West  Level FlightAware Approximate
10:26PM 32.8456 -125.4530 255° West  Level FlightAware Approximate
10:27PM 32.8159 -125.5805 255° West  Level FlightAware Approximate
10:28PM 32.7860 -125.7079 254° West  Level FlightAware Approximate
10:29PM 32.7561 -125.8353 254° West  Level FlightAware Approximate
10:30PM 32.7260 -125.9625 254° West  Level FlightAware Approximate
10:31PM 32.6958 -126.0897 254° West  Level FlightAware Approximate
10:32PM 32.6654 -126.2168 254° West  Level FlightAware Approximate
10:33PM 32.6349 -126.3438 254° West  Level FlightAware Approximate
10:34PM 32.6043 -126.4707 254° West  Level FlightAware Approximate
10:35PM 32.5735 -126.5975 254° West  Level FlightAware Approximate
10:36PM 32.5427 -126.7242 254° West  Level FlightAware Approximate
10:37PM 32.5117 -126.8509 254° West  Level FlightAware Approximate
10:38PM 32.4805 -126.9774 254° West  Level FlightAware Approximate
10:39PM 32.4493 -127.1039 254° West  Level FlightAware Approximate
10:40PM 32.4179 -127.2303 254° West  Level FlightAware Approximate
10:41PM 32.3864 -127.3566 254° West  Level FlightAware Approximate
10:42PM 32.3548 -127.4828 254° West  Level FlightAware Approximate
10:43PM 32.3230 -127.6089 253° West  Level FlightAware Approximate
10:44PM 32.2913 -127.7350 254° West  Level FlightAware Approximate
10:45PM 32.2596 -127.8610 254° West  Level FlightAware Approximate
10:46PM 32.2279 -127.9870 253° West  Level FlightAware Approximate
10:47PM 32.1960 -128.1129 253° West  Level FlightAware Approximate
10:48PM 32.1640 -128.2387 253° West  Level FlightAware Approximate
10:49PM 32.1319 -128.3644 253° West  Level FlightAware Approximate
10:50PM 32.0996 -128.4901 253° West  Level FlightAware Approximate
10:51PM 32.0672 -128.6156 253° West  Level FlightAware Approximate
10:52PM 32.0347 -128.7411 253° West  Level FlightAware Approximate
10:53PM 32.0021 -128.8664 253° West  Level FlightAware Approximate
10:54PM 31.9694 -128.9917 253° West  Level FlightAware Approximate
10:55PM 31.9365 -129.1169 253° West  Level FlightAware Approximate
10:56PM 31.9035 -129.2420 253° West  Level FlightAware Approximate
10:57PM 31.8704 -129.3670 253° West  Level FlightAware Approximate
10:58PM 31.8372 -129.4919 253° West  Level FlightAware Approximate
10:59PM 31.8038 -129.6167 253° West  Level FlightAware Approximate
11:00PM 31.7703 -129.7415 253° West  Level FlightAware Approximate
11:01PM 31.7367 -129.8661 252° West  Level FlightAware Approximate
11:02PM 31.7030 -129.9907 252° West  Level FlightAware Approximate
11:03PM 31.6692 -130.1151 252° West  Level FlightAware Approximate
11:04PM 31.6352 -130.2395 252° West  Level FlightAware Approximate
11:05PM 31.6011 -130.3638 252° West  Level FlightAware Approximate
11:06PM 31.5669 -130.4880 252° West  Level FlightAware Approximate
11:07PM 31.5326 -130.6121 252° West  Level FlightAware Approximate
11:08PM 31.4982 -130.7361 252° West  Level FlightAware Approximate
11:09PM 31.4636 -130.8600 252° West  Level FlightAware Approximate
11:10PM 31.4289 -130.9838 252° West  Level FlightAware Approximate
11:11PM 31.3941 -131.1075 252° West  Level FlightAware Approximate
11:12PM 31.3592 -131.2312 252° West  Level FlightAware Approximate
11:13PM 31.3242 -131.3547 252° West  Level FlightAware Approximate
11:14PM 31.2890 -131.4782 252° West  Level FlightAware Approximate
11:15PM 31.2537 -131.6016 252° West  Level FlightAware Approximate
11:16PM 31.2183 -131.7248 251° West  Level FlightAware Approximate
11:17PM 31.1828 -131.8480 251° West  Level FlightAware Approximate
11:18PM 31.1472 -131.9711 251° West  Level FlightAware Approximate
11:19PM 31.1114 -132.0941 251° West  Level FlightAware Approximate
11:20PM 31.0754 -132.2169 251° West  Level FlightAware Approximate
11:21PM 31.0391 -132.3396 251° West  Level FlightAware Approximate
11:22PM 31.0027 -132.4622 251° West  Level FlightAware Approximate
11:23PM 30.9662 -132.5847 251° West  Level FlightAware Approximate
11:24PM 30.9296 -132.7071 251° West  Level FlightAware Approximate
11:25PM 30.8928 -132.8294 251° West  Level FlightAware Approximate
11:26PM 30.8560 -132.9516 251° West  Level FlightAware Approximate
11:27PM 30.8190 -133.0738 251° West  Level FlightAware Approximate
11:28PM 30.7819 -133.1958 251° West  Level FlightAware Approximate
11:29PM 30.7432 -133.3226 250° West  Level FlightAware Approximate
11:30PM 30.7044 -133.4494 250° West  Level FlightAware Approximate
11:31PM 30.6655 -133.5760 250° West  Level FlightAware Approximate
11:32PM 30.6264 -133.7026 250° West  Level FlightAware Approximate
11:33PM 30.5872 -133.8290 250° West  Level FlightAware Approximate
11:34PM 30.5479 -133.9553 250° West  Level FlightAware Approximate
11:35PM 30.5085 -134.0816 250° West  Level FlightAware Approximate
11:36PM 30.4689 -134.2077 250° West  Level FlightAware Approximate
11:37PM 30.4292 -134.3337 250° West  Level FlightAware Approximate
11:38PM 30.3894 -134.4596 250° West  Level FlightAware Approximate
11:39PM 30.3495 -134.5854 250° West  Level FlightAware Approximate
11:40PM 30.3095 -134.7112 250° West  Level FlightAware Approximate
11:41PM 30.2693 -134.8368 250° West  Level FlightAware Approximate
11:42PM 30.2290 -134.9623 250° West  Level FlightAware Approximate
11:43PM 30.1886 -135.0877 250° West  Level FlightAware Approximate
11:44PM 30.1481 -135.2130 250° West  Level FlightAware Approximate
11:45PM 30.1075 -135.3382 249° West  Level FlightAware Approximate
11:46PM 30.0667 -135.4633 249° West  Level FlightAware Approximate
11:47PM 30.0259 -135.5883 249° West  Level FlightAware Approximate
11:48PM 29.9849 -135.7132 249° West  Level FlightAware Approximate
11:49PM 29.9438 -135.8380 249° West  Level FlightAware Approximate
11:50PM 29.9025 -135.9627 249° West  Level FlightAware Approximate
11:51PM 29.8612 -136.0873 249° West  Level FlightAware Approximate
11:52PM 29.8197 -136.2117 249° West  Level FlightAware Approximate
11:53PM 29.7782 -136.3361 249° West  Level FlightAware Approximate
11:54PM 29.7365 -136.4604 249° West  Level FlightAware Approximate
11:55PM 29.6947 -136.5846 249° West  Level FlightAware Approximate
11:56PM 29.6527 -136.7086 249° West  Level FlightAware Approximate
11:57PM 29.6107 -136.8326 249° West  Level FlightAware Approximate
11:58PM 29.5686 -136.9565 249° West  Level FlightAware Approximate
11:59PM 29.5263 -137.0802 249° West  Level FlightAware Approximate
12:00AM 29.4839 -137.2039 249° West  Level FlightAware Approximate
12:01AM 29.4414 -137.3274 248° West  Level FlightAware Approximate
12:02AM 29.3988 -137.4509 248° West  Level FlightAware Approximate
12:03AM 29.3561 -137.5742 248° West  Level FlightAware Approximate
12:04AM 29.3132 -137.6974 248° West  Level FlightAware Approximate
12:05AM 29.2703 -137.8206 248° West  Level FlightAware Approximate
12:06AM 29.2272 -137.9436 248° West  Level FlightAware Approximate
12:07AM 29.1840 -138.0665 248° West  Level FlightAware Approximate
12:08AM 29.1407 -138.1893 248° West  Level FlightAware Approximate
12:09AM 29.0973 -138.3121 248° West  Level FlightAware Approximate
12:10AM 29.0538 -138.4347 248° West  Level FlightAware Approximate
12:11AM 29.0102 -138.5572 248° West  Level FlightAware Approximate
12:12AM 28.9665 -138.6796 248° West  Level FlightAware Approximate
12:13AM 28.9226 -138.8019 248° West  Level FlightAware Approximate
12:14AM 28.8787 -138.9241 248° West  Level FlightAware Approximate
12:15AM 28.8346 -139.0462 248° West  Level FlightAware Approximate
12:16AM 28.7904 -139.1682 248° West  Level FlightAware Approximate
12:17AM 28.7461 -139.2901 248° West  Level FlightAware Approximate
12:18AM 28.7017 -139.4119 247° West  Level FlightAware Approximate
12:19AM 28.6571 -139.5335 247° West  Level FlightAware Approximate
12:20AM 28.6124 -139.6550 247° West  Level FlightAware Approximate
12:21AM 28.5676 -139.7765 247° West  Level FlightAware Approximate
12:22AM 28.5226 -139.8978 247° West  Level FlightAware Approximate
12:23AM 28.4776 -140.0190 247° West  Level FlightAware Approximate
12:24AM 28.4324 -140.1401 247° West  Level FlightAware Approximate
12:25AM 28.3871 -140.2611 247° West  Level FlightAware Approximate
12:26AM 28.3418 -140.3820 247° West  Level FlightAware Approximate
12:27AM 28.2963 -140.5028 247° West  Level FlightAware Approximate
12:28AM 28.2507 -140.6235 247° West  Level FlightAware Approximate
12:29AM 28.2050 -140.7441 247° West  Level FlightAware Approximate
12:30AM 28.1592 -140.8646 247° West  Level FlightAware Approximate
12:31AM 28.1133 -140.9850 247° West  Level FlightAware Approximate
12:32AM 28.0673 -141.1053 247° West  Level FlightAware Approximate
12:33AM 28.0212 -141.2255 247° West  Level FlightAware Approximate
12:34AM 27.9750 -141.3456 246° West  Level FlightAware Approximate
12:35AM 27.9286 -141.4655 246° West  Level FlightAware Approximate
12:36AM 27.8822 -141.5854 246° West  Level FlightAware Approximate
12:37AM 27.8357 -141.7052 246° West  Level FlightAware Approximate
12:38AM 27.7891 -141.8249 246° West  Level FlightAware Approximate
12:39AM 27.7423 -141.9444 246° West  Level FlightAware Approximate
12:40AM 27.6955 -142.0639 246° West  Level FlightAware Approximate
12:41AM 27.6486 -142.1832 246° West  Level FlightAware Approximate
12:42AM 27.6015 -142.3025 246° West  Level FlightAware Approximate
12:43AM 27.5544 -142.4217 246° West  Level FlightAware Approximate
12:44AM 27.5071 -142.5407 246° West  Level FlightAware Approximate
12:45AM 27.4598 -142.6597 246° West  Level FlightAware Approximate
12:46AM 27.4123 -142.7785 246° West  Level FlightAware Approximate
12:47AM 27.3648 -142.8973 246° West  Level FlightAware Approximate
12:48AM 27.3171 -143.0159 246° West  Level FlightAware Approximate
12:49AM 27.2694 -143.1344 246° West  Level FlightAware Approximate
12:50AM 27.2215 -143.2529 246° West  Level FlightAware Approximate
12:51AM 27.1736 -143.3712 246° West  Level FlightAware Approximate
12:52AM 27.1255 -143.4895 245° Southwest  Level FlightAware Approximate
12:53AM 27.0774 -143.6076 245° Southwest  Level FlightAware Approximate
12:54AM 27.0291 -143.7256 245° Southwest  Level FlightAware Approximate
12:55AM 26.9808 -143.8436 245° Southwest  Level FlightAware Approximate
12:56AM 26.9324 -143.9614 245° Southwest  Level FlightAware Approximate
12:57AM 26.8838 -144.0791 245° Southwest  Level FlightAware Approximate
12:58AM 26.8352 -144.1968 245° Southwest  Level FlightAware Approximate
12:59AM 26.7864 -144.3143 245° Southwest  Level FlightAware Approximate
01:00AM 26.7376 -144.4317 245° Southwest  Level FlightAware Approximate
01:01AM 26.6887 -144.5491 245° Southwest  Level FlightAware Approximate
01:02AM 26.6397 -144.6663 245° Southwest  Level FlightAware Approximate
01:03AM 26.5905 -144.7834 245° Southwest  Level FlightAware Approximate
01:04AM 26.5413 -144.9004 245° Southwest  Level FlightAware Approximate
01:05AM 26.4920 -145.0173 245° Southwest  Level FlightAware Approximate
01:06AM 26.4426 -145.1342 245° Southwest  Level FlightAware Approximate
01:07AM 26.3931 -145.2509 245° Southwest  Level FlightAware Approximate
01:08AM 26.3435 -145.3675 245° Southwest  Level FlightAware Approximate
01:09AM 26.2938 -145.4840 245° Southwest  Level FlightAware Approximate
01:10AM 26.2441 -145.6004 245° Southwest  Level FlightAware Approximate
01:11AM 26.1942 -145.7168 244° Southwest  Level FlightAware Approximate
01:12AM 26.1442 -145.8330 244° Southwest  Level FlightAware Approximate
01:13AM 26.0942 -145.9491 244° Southwest  Level FlightAware Approximate
01:14AM 26.0440 -146.0651 244° Southwest  Level FlightAware Approximate
01:15AM 25.9937 -146.1811 244° Southwest  Level FlightAware Approximate
01:16AM 25.9434 -146.2969 244° Southwest  Level FlightAware Approximate
01:17AM 25.8930 -146.4126 244° Southwest  Level FlightAware Approximate
01:18AM 25.8420 -146.5293 244° Southwest  Level FlightAware Approximate
01:19AM 25.7909 -146.6459 244° Southwest  Level FlightAware Approximate
01:20AM 25.7397 -146.7625 244° Southwest  Level FlightAware Approximate
01:21AM 25.6884 -146.8789 244° Southwest  Level FlightAware Approximate
01:22AM 25.6371 -146.9952 244° Southwest  Level FlightAware Approximate
01:23AM 25.5856 -147.1114 244° Southwest  Level FlightAware Approximate
01:24AM 25.5340 -147.2275 244° Southwest  Level FlightAware Approximate
01:25AM 25.4824 -147.3435 244° Southwest  Level FlightAware Approximate
01:26AM 25.4306 -147.4594 244° Southwest  Level FlightAware Approximate
01:27AM 25.3788 -147.5752 244° Southwest  Level FlightAware Approximate
01:28AM 25.3269 -147.6909 244° Southwest  Level FlightAware Approximate
01:29AM 25.2749 -147.8065 244° Southwest  Level FlightAware Approximate
01:30AM 25.2228 -147.9220 244° Southwest  Level FlightAware Approximate
01:31AM 25.1706 -148.0375 243° Southwest  Level FlightAware Approximate
01:32AM 25.1183 -148.1528 243° Southwest  Level FlightAware Approximate
01:33AM 25.0659 -148.2680 243° Southwest  Level FlightAware Approximate
01:34AM 25.0135 -148.3831 243° Southwest  Level FlightAware Approximate
01:35AM 24.9609 -148.4981 243° Southwest  Level FlightAware Approximate
01:36AM 24.9083 -148.6131 243° Southwest  Level FlightAware Approximate
01:37AM 24.8556 -148.7279 243° Southwest  Level FlightAware Approximate
01:38AM 24.8028 -148.8426 243° Southwest  Level FlightAware Approximate
01:39AM 24.7499 -148.9572 243° Southwest  Level FlightAware Approximate
01:40AM 24.6969 -149.0717 243° Southwest  Level FlightAware Approximate
01:41AM 24.6438 -149.1862 243° Southwest  Level FlightAware Approximate
01:42AM 24.5907 -149.3005 243° Southwest  Level FlightAware Approximate
01:43AM 24.5374 -149.4147 243° Southwest  Level FlightAware Approximate
01:44AM 24.4841 -149.5289 243° Southwest  Level FlightAware Approximate
01:45AM 24.4307 -149.6429 243° Southwest  Level FlightAware Approximate
01:46AM 24.3772 -149.7569 243° Southwest  Level FlightAware Approximate
01:47AM 24.3236 -149.8707 243° Southwest  Level FlightAware Approximate
01:48AM 24.2699 -149.9845 243° Southwest  Level FlightAware Approximate
01:49AM 24.2162 -150.0981 243° Southwest  Level FlightAware Approximate
01:50AM 24.1623 -150.2117 243° Southwest  Level FlightAware Approximate
01:51AM 24.1084 -150.3252 243° Southwest  Level FlightAware Approximate
01:52AM 24.0544 -150.4385 242° Southwest  Level FlightAware Approximate
01:53AM 24.0003 -150.5518 242° Southwest  Level FlightAware Approximate
01:54AM 23.9461 -150.6650 242° Southwest  Level FlightAware Approximate
01:55AM 23.8919 -150.7781 242° Southwest  Level FlightAware Approximate
01:56AM 23.8375 -150.8911 242° Southwest  Level FlightAware Approximate
01:57AM 23.7831 -151.0040 242° Southwest  Level FlightAware Approximate
01:58AM 23.7286 -151.1167 242° Southwest  Level FlightAware Approximate
01:59AM 23.6740 -151.2295 242° Southwest  Level FlightAware Approximate
02:00AM 23.6194 -151.3421 242° Southwest  Level FlightAware Approximate
02:01AM 23.5646 -151.4546 242° Southwest  Level FlightAware Approximate
02:02AM 23.5098 -151.5670 242° Southwest  Level FlightAware Approximate
02:03AM 23.4549 -151.6793 242° Southwest  Level FlightAware Approximate
02:04AM 23.3999 -151.7916 242° Southwest  Level FlightAware Approximate
02:05AM 23.3448 -151.9037 242° Southwest  Level FlightAware Approximate
02:06AM 23.2897 -152.0158 242° Southwest  Level FlightAware Approximate
02:07AM 23.2344 -152.1277 242° Southwest  Level FlightAware Approximate
02:08AM 23.1791 -152.2396 242° Southwest  Level FlightAware Approximate
02:09AM 23.1238 -152.3514 242° Southwest  Level FlightAware Approximate
02:10AM 23.0683 -152.4630 242° Southwest  Level FlightAware Approximate
02:11AM 23.0127 -152.5746 241° Southwest  Level FlightAware Approximate
02:12AM 22.9565 -152.6857 241° Southwest  Level FlightAware Approximate
02:12AM 24.1833 -154.4167 241° Southwest 440 506 36,000  Level Honolulu Center
02:13AM 22.9001 -152.7967 241° Southwest  Level FlightAware Approximate
02:13AM 24.1000 -154.5167 228° Southwest 440 506 36,000  Level Honolulu Center
02:14AM 22.8436 -152.9076 241° Southwest  Level FlightAware Approximate
02:14AM 24.0167 -154.6167 228° Southwest 430 495 36,000  Level Honolulu Center
02:15AM 22.7871 -153.0184 241° Southwest  Level FlightAware Approximate
02:15AM 23.9333 -154.7000 222° Southwest 430 495 36,000  Level Honolulu Center
02:16AM 22.7304 -153.1291 241° Southwest  Level FlightAware Approximate
02:16AM 23.8500 -154.8000 228° Southwest 430 495 36,000  Level Honolulu Center
02:17AM 22.6737 -153.2397 241° Southwest  Level FlightAware Approximate
02:17AM 23.7667 -154.9000 228° Southwest 420 483 36,000  Level Honolulu Center
02:18AM 23.6833 -154.9833 222° Southwest 430 495 36,000  Level Honolulu Center
02:19AM 23.6000 -155.0833 228° Southwest 430 495 36,000  Level Honolulu Center
02:20AM 23.5167 -155.1833 228° Southwest 420 483 36,000  Level Honolulu Center
02:21AM 23.4333 -155.2667 223° Southwest 430 495 36,000  Level Honolulu Center
02:22AM 23.3500 -155.3667 228° Southwest 430 495 36,000  Level Honolulu Center
02:23AM 23.2667 -155.4500 223° Southwest 430 495 36,000  Level Honolulu Center
02:24AM 23.1833 -155.5500 228° Southwest 430 495 36,000  Level Honolulu Center
02:25AM 23.1000 -155.6500 228° Southwest 430 495 36,000  Level Honolulu Center
02:26AM 23.0167 -155.7333 223° Southwest 430 495 36,000  Level Honolulu Center
02:27AM 22.9333 -155.8333 228° Southwest 430 495 36,000  Level Honolulu Center
02:28AM 22.8500 -155.9167 223° Southwest 430 495 36,000  Level Honolulu Center
02:29AM 22.7667 -156.0167 228° Southwest 430 495 36,000  Level Honolulu Center
02:30AM 22.6833 -156.1000 223° Southwest 430 495 36,000  Level Honolulu Center
02:31AM 22.6000 -156.2000 228° Southwest 430 495 36,000  Level Honolulu Center
02:32AM 22.5167 -156.2833 223° Southwest 430 495 36,000 -780 Level Honolulu Center
02:33AM 22.4333 -156.3833 228° Southwest 430 495 34,500 -2,400 Descending Honolulu Center
02:34AM 22.3500 -156.4833 228° Southwest 440 506 31,200 -2,760 Descending Honolulu Center
02:35AM 22.2667 -156.5667 223° Southwest 440 506 29,000 -1,920 Descending Honolulu Center
02:36AM 22.1833 -156.6667 228° Southwest 430 495 27,400 -1,740 Descending Honolulu Center
02:37AM 22.1000 -156.7500 223° Southwest 430 495 25,600 -1,320 Descending Honolulu Center
02:38AM 22.0167 -156.8500 228° Southwest 410 472 24,800 -840 Descending Honolulu Center
02:39AM 21.9333 -156.9333 223° Southwest 420 483 24,000 -1,500 Descending Honolulu Center
02:40AM 21.8500 -157.0167 223° Southwest 400 460 21,800 -2,220 Descending Honolulu Center
02:41AM 21.7667 -157.1167 228° Southwest 390 449 19,600 -2,220 Descending Honolulu Center
02:42AM 21.6833 -157.2000 223° Southwest 390 449 17,400 -2,160 Descending Honolulu Center
02:43AM 21.6167 -157.2833 229° Southwest 380 437 15,300 -2,040 Descending Honolulu Center
02:44AM 21.5333 -157.3667 223° Southwest 370 426 13,300 -2,040 Descending Honolulu Center
02:45AM 21.4667 -157.4500 229° Southwest 360 414 11,200 -1,680 Descending Honolulu Center
02:46AM 21.4000 -157.5333 229° Southwest 350 403 10,000 -900 Descending Honolulu Center
02:47AM 21.3667 -157.6167 247° West 310 357 9,500 -1,020 Descending Honolulu Center
02:48AM 21.3333 -157.7000 247° West 310 357 8,000 -1,500 Descending Honolulu Center